Zuiderdam — PBIG — position and weather

sailwx.info

Track history (hours):
 
Tides and Currents Weather Stations Pressure Air Temp Water Temp Dewpoint Dewpoint Depression Visibility Wind Speed Wind Dir Waves Ship Positions

Zuiderdam (Netherlands)

Operator: Holland America Line

Last reported at 2018-Sep-20 02:00 UTC. Time now 2018-Sep-24 21:48 UTC.
Position N 46°30' W 061°48'.

Type: Passenger vessel. MMSI: 245304000.

Wind from 070 at 28 knots

Barometer 1020.0 mb
Air temperature 12.4 ° C
Visibility: greater than 10.8 NM
Dewpoint 7.7 ° C
Water temperature 18.9 ° C

Date/timePositionNaut miles runAvg speedWind from/ knotsBaromVisibWave heightAir tempDewpointWater temp
2018-Sep-20 02:00N 46°30' W 061°48'1312.7 070 / 281020.010.8 12.4 7.718.9
2018-Sep-20 01:00N 46°18' W 061°54'   070 / 171021.0 5.4 12.5 7.419.3
2018-Sep-16 09:00N 44°00' W 068°06'7 7.4 250 / 171021.0 14.213.915.3
2018-Sep-16 08:00N 43°56' W 068°15'612.9
2018-Sep-16 07:30N 43°51' W 068°20'713.0
2018-Sep-16 06:59N 43°46' W 068°27'713.0
2018-Sep-16 06:27N 43°41' W 068°33'513.3
2018-Sep-16 06:03N 43°37' W 068°38'113.1
2018-Sep-16 06:00N 43°37' W 068°39'612.9
2018-Sep-16 05:30N 43°33' W 068°46'613.2
2018-Sep-16 05:03N 43°30' W 068°53'117.3
2018-Sep-16 05:00N 43°29' W 068°54'1018.4
2018-Sep-16 04:27N 43°24' W 069°05'2518.5
2018-Sep-16 03:05N 43°08' W 069°33'118.3
2018-Sep-16 03:03N 43°08' W 069°34'118.8
2018-Sep-16 03:01N 43°08' W 069°35'1218.7
2018-Sep-16 02:23N 43°00' W 069°47'718.6
2018-Sep-16 02:00N 42°56' W 069°55'918.3
2018-Sep-16 01:29N 42°50' W 070°05'818.2
2018-Sep-16 01:03N 42°45' W 070°13'118.3
2018-Sep-16 01:00N 42°45' W 070°14'918.4
2018-Sep-16 00:31N 42°39' W 070°24'818.0
2018-Sep-16 00:04N 42°34' W 070°33'118.0
2018-Sep-16 00:01N 42°33' W 070°33'918.2
2018-Sep-15 23:30N 42°28' W 070°43'817.6
2018-Sep-15 23:04N 42°24' W 070°52'112.0
2018-Sep-15 22:58N 42°23' W 070°53'511.3
2018-Sep-15 22:30N 42°20' W 070°59'2 0.2
2018-Sep-15 11:47N 42°21' W 071°02'1 2.9
2018-Sep-15 11:30N 42°21' W 071°01'4 8.4
2018-Sep-15 11:03N 42°22' W 070°56'112.9
2018-Sep-15 11:00N 42°22' W 070°55'611.7
2018-Sep-15 10:30N 42°24' W 070°48'512.1
2018-Sep-15 10:03N 42°23' W 070°41'112.2
2018-Sep-15 10:00N 42°23' W 070°40'612.0
2018-Sep-15 09:30N 42°22' W 070°32'512.2
2018-Sep-15 09:03N 42°21' W 070°25'112.4
2018-Sep-15 09:00N 42°21' W 070°24'5361.0
2018-Sep-15 09:00N 42°18' W 070°18'3 6.2 350 / 31023.027.0 17.916.220.7
2018-Sep-15 08:30N 42°21' W 070°16'612.3
2018-Sep-15 08:03N 42°20' W 070°08'012.5
2018-Sep-15 08:00N 42°20' W 070°08'612.0
2018-Sep-15 07:30N 42°18' W 069°60'613.4
2018-Sep-15 07:03N 42°13' W 069°56'012.5
2018-Sep-15 07:00N 42°12' W 069°56'4 8.9
2018-Sep-15 06:30N 42°08' W 069°53'510.2
2018-Sep-15 06:03N 42°04' W 069°50'0 8.2
2018-Sep-15 06:00N 42°04' W 069°50'5 9.2
2018-Sep-15 05:30N 41°60' W 069°47'510.1
2018-Sep-15 05:03N 41°56' W 069°44'010.1
2018-Sep-15 05:00N 41°55' W 069°44'510.0
2018-Sep-15 04:30N 41°51' W 069°41'4 9.9
2018-Sep-15 04:03N 41°47' W 069°38'1 9.9
2018-Sep-15 04:00N 41°46' W 069°38'510.2
2018-Sep-15 03:30N 41°42' W 069°35'510.5
2018-Sep-15 03:03N 41°38' W 069°32'110.9
2018-Sep-15 03:00N 41°37' W 069°32'510.2
2018-Sep-15 02:30N 41°33' W 069°29'613.2
2018-Sep-15 02:03N 41°27' W 069°25'113.5
2018-Sep-15 02:00N 41°27' W 069°25'713.4
2018-Sep-15 01:30N 41°21' W 069°20'613.1
2018-Sep-15 01:02N 41°15' W 069°17'012.7
2018-Sep-15 01:00N 41°15' W 069°17'712.9
2018-Sep-15 00:29N 41°09' W 069°13'612.2
2018-Sep-15 00:01N 41°04' W 069°09'011.3
2018-Sep-15 00:00N 41°04' W 069°09'711.2
2018-Sep-14 23:26N 40°58' W 069°05'411.0
2018-Sep-14 23:03N 40°54' W 069°03'111.3
2018-Sep-14 23:00N 40°54' W 069°02'611.5
2018-Sep-14 22:26N 40°48' W 068°58'2411.3
2018-Sep-14 20:19N 40°28' W 069°16'313.2
2018-Sep-14 20:03N 40°27' W 069°20'112.9
2018-Sep-14 20:00N 40°27' W 069°21'2013.0
2018-Sep-14 18:29N 40°27' W 069°47'611.2
2018-Sep-14 17:56N 40°26' W 069°55'1011.4
2018-Sep-14 17:04N 40°26' W 070°08'011.4
2018-Sep-14 17:02N 40°26' W 070°09'011.3
2018-Sep-14 17:00N 40°26' W 070°09'611.4
2018-Sep-14 16:30N 40°26' W 070°16'511.4
2018-Sep-14 16:02N 40°25' W 070°24'211.2
2018-Sep-14 15:51N 40°25' W 070°26'411.1
2018-Sep-14 15:30N 40°25' W 070°31'511.0
2018-Sep-14 15:02N 40°25' W 070°38'210.7
2018-Sep-14 14:52N 40°25' W 070°40'3311.6
2018-Sep-14 12:00N 40°24' W 071°24'9 9.1 060 / 261024.010.8 19.716.923.4
2018-Sep-14 11:00N 40°24' W 071°36'9 9.1 060 / 201024.010.8 20.117.522.8
2018-Sep-14 10:00N 40°24' W 071°48'3812.1 060 / 201023.010.8 20.017.822.4
2018-Sep-14 06:52N 40°23' W 072°38'511.4
2018-Sep-14 06:26N 40°23' W 072°44'511.3
2018-Sep-14 06:01N 40°23' W 072°51'010.8
2018-Sep-14 06:00N 40°23' W 072°51'611.2
2018-Sep-14 05:27N 40°22' W 072°59'411.1
2018-Sep-14 05:03N 40°22' W 073°05'611.2
2018-Sep-14 04:33N 40°22' W 073°12'411.2
2018-Sep-14 04:13N 40°23' W 073°17'211.0
2018-Sep-14 04:02N 40°23' W 073°19'110.9
2018-Sep-14 03:56N 40°23' W 073°21'510.7
2018-Sep-14 03:29N 40°24' W 073°27'510.6
2018-Sep-14 03:02N 40°25' W 073°33'110.5
2018-Sep-14 02:58N 40°25' W 073°34'511.1
2018-Sep-14 02:30N 40°25' W 073°41'511.3
2018-Sep-14 02:03N 40°26' W 073°48'010.0
2018-Sep-14 02:00N 40°26' W 073°48'611.9
2018-Sep-14 01:30N 40°29' W 073°55'714.8
2018-Sep-14 01:03N 40°33' W 074°02'116.1
2018-Sep-14 01:01N 40°34' W 074°02'611.9
2018-Sep-14 00:30N 40°40' W 074°03'2 3.9
2018-Sep-14 00:01N 40°41' W 074°01'0 0.0
2018-Sep-13 23:58N 40°41' W 074°01'0 0.0
2018-Sep-13 23:28N 40°41' W 074°01'0 0.0
2018-Sep-13 23:01N 40°41' W 074°01'0 0.0
2018-Sep-13 22:58N 40°41' W 074°01'0 0.0
2018-Sep-13 22:25N 40°41' W 074°01'0 0.1
2018-Sep-13 22:01N 40°41' W 074°01'0 0.2
2018-Sep-13 21:58N 40°41' W 074°01'0 0.0
2018-Sep-13 21:28N 40°41' W 074°01'0 0.0
2018-Sep-13 21:01N 40°41' W 074°01'0 0.0
2018-Sep-13 20:58N 40°41' W 074°01'0 0.0
2018-Sep-13 20:28N 40°41' W 074°01'0 0.0
2018-Sep-13 20:01N 40°41' W 074°01'0 0.0
2018-Sep-13 19:58N 40°41' W 074°01'0 0.0
2018-Sep-13 19:28N 40°41' W 074°01'0 0.1
2018-Sep-13 19:01N 40°41' W 074°01'0 0.0
2018-Sep-13 18:58N 40°41' W 074°01'0 0.0
2018-Sep-13 18:28N 40°41' W 074°01'0 0.1
2018-Sep-13 18:01N 40°41' W 074°01'0 0.0
2018-Sep-13 17:58N 40°41' W 074°01'0 0.0
2018-Sep-13 17:28N 40°41' W 074°01'0 0.0
2018-Sep-13 17:01N 40°41' W 074°01'0 0.0
2018-Sep-13 16:58N 40°41' W 074°01'0 0.0
2018-Sep-13 16:28N 40°41' W 074°01'0 0.0
2018-Sep-13 16:01N 40°41' W 074°01'0 0.0
2018-Sep-13 15:58N 40°41' W 074°01'0 0.0
2018-Sep-13 15:25N 40°41' W 074°01'0 0.1
2018-Sep-13 15:01N 40°41' W 074°01'0 0.0
2018-Sep-13 14:58N 40°41' W 074°01'0 0.0
2018-Sep-13 14:28N 40°41' W 074°01'0 0.0
2018-Sep-13 13:58N 40°41' W 074°01'0 0.0
2018-Sep-13 13:28N 40°41' W 074°01'0 0.0
2018-Sep-13 13:01N 40°41' W 074°01'0 0.0
2018-Sep-13 12:55N 40°41' W 074°01'0 0.0
2018-Sep-13 12:28N 40°41' W 074°01'0 0.0
2018-Sep-13 12:01N 40°41' W 074°01'0 0.0
2018-Sep-13 11:58N 40°41' W 074°01'0 0.0
2018-Sep-13 11:28N 40°41' W 074°01'0 0.0
2018-Sep-13 11:01N 40°41' W 074°01'0 0.0
2018-Sep-13 10:58N 40°41' W 074°01'0 0.1
2018-Sep-13 10:30N 40°41' W 074°01'1 2.4
2018-Sep-13 10:03N 40°40' W 074°02'0 4.5
2018-Sep-13 10:00N 40°40' W 074°03'4 7.5
2018-Sep-13 09:30N 40°37' W 074°03'714.4
2018-Sep-13 09:03N 40°31' W 073°59'115.5
2018-Sep-13 09:00N 40°30' W 073°58'713.9
2018-Sep-13 08:29N 40°27' W 073°49'613.0
2018-Sep-13 08:03N 40°27' W 073°42'118.9
2018-Sep-13 08:00N 40°27' W 073°41'1117.5
2018-Sep-13 07:23N 40°28' W 073°27'717.7
2018-Sep-13 07:00N 40°29' W 073°18'914.5
2018-Sep-13 06:25N 40°30' W 073°07'513.8
2018-Sep-13 06:03N 40°30' W 073°00'116.7
2018-Sep-13 05:59N 40°30' W 072°59'918.2
2018-Sep-13 05:30N 40°30' W 072°47'918.1
2018-Sep-13 05:02N 40°30' W 072°36'018.2
2018-Sep-13 05:00N 40°30' W 072°35'1117.8
2018-Sep-13 04:23N 40°31' W 072°21'717.4
2018-Sep-13 03:59N 40°31' W 072°12'918.0
2018-Sep-13 03:30N 40°31' W 071°60'  
2018-Sep-10 15:00N 45°36' W 057°36'   030 / 141031.010.8 20.9-2.319.4
Track history (hours):
 
Tides and Currents Weather Stations Pressure Air Temp Water Temp Dewpoint Dewpoint Depression Visibility Wind Speed Wind Dir Waves Ship Positions

Zuiderdam (Netherlands)

Operator: Holland America Line

Last reported at 2018-Sep-20 02:00 UTC. Time now 2018-Sep-24 21:48 UTC.
Position N 46°30' W 061°48'.

Type: Passenger vessel. MMSI: 245304000.

Wind from 070 at 28 knots

Barometer 1020.0 mb
Air temperature 12.4 ° C
Visibility: greater than 10.8 NM
Dewpoint 7.7 ° C
Water temperature 18.9 ° C

Date/timePositionNaut miles runAvg speedWind from/ knotsBaromVisibWave heightAir tempDewpointWater temp
2018-Sep-20 02:00N 46°30' W 061°48'1312.7 070 / 281020.010.8 12.4 7.718.9
2018-Sep-20 01:00N 46°18' W 061°54'   070 / 171021.0 5.4 12.5 7.419.3
2018-Sep-16 09:00N 44°00' W 068°06'7 7.4 250 / 171021.0 14.213.915.3
2018-Sep-16 08:00N 43°56' W 068°15'612.9
2018-Sep-16 07:30N 43°51' W 068°20'713.0
2018-Sep-16 06:59N 43°46' W 068°27'713.0
2018-Sep-16 06:27N 43°41' W 068°33'513.3
2018-Sep-16 06:03N 43°37' W 068°38'113.1
2018-Sep-16 06:00N 43°37' W 068°39'612.9
2018-Sep-16 05:30N 43°33' W 068°46'613.2
2018-Sep-16 05:03N 43°30' W 068°53'117.3
2018-Sep-16 05:00N 43°29' W 068°54'1018.4
2018-Sep-16 04:27N 43°24' W 069°05'2518.5
2018-Sep-16 03:05N 43°08' W 069°33'118.3
2018-Sep-16 03:03N 43°08' W 069°34'118.8
2018-Sep-16 03:01N 43°08' W 069°35'1218.7
2018-Sep-16 02:23N 43°00' W 069°47'718.6
2018-Sep-16 02:00N 42°56' W 069°55'918.3
2018-Sep-16 01:29N 42°50' W 070°05'818.2
2018-Sep-16 01:03N 42°45' W 070°13'118.3
2018-Sep-16 01:00N 42°45' W 070°14'918.4
2018-Sep-16 00:31N 42°39' W 070°24'818.0
2018-Sep-16 00:04N 42°34' W 070°33'118.0
2018-Sep-16 00:01N 42°33' W 070°33'918.2
2018-Sep-15 23:30N 42°28' W 070°43'817.6
2018-Sep-15 23:04N 42°24' W 070°52'112.0
2018-Sep-15 22:58N 42°23' W 070°53'511.3
2018-Sep-15 22:30N 42°20' W 070°59'2 0.2
2018-Sep-15 11:47N 42°21' W 071°02'1 2.9
2018-Sep-15 11:30N 42°21' W 071°01'4 8.4
2018-Sep-15 11:03N 42°22' W 070°56'112.9
2018-Sep-15 11:00N 42°22' W 070°55'611.7
2018-Sep-15 10:30N 42°24' W 070°48'512.1
2018-Sep-15 10:03N 42°23' W 070°41'112.2
2018-Sep-15 10:00N 42°23' W 070°40'612.0
2018-Sep-15 09:30N 42°22' W 070°32'512.2
2018-Sep-15 09:03N 42°21' W 070°25'112.4
2018-Sep-15 09:00N 42°21' W 070°24'5361.0
2018-Sep-15 09:00N 42°18' W 070°18'3 6.2 350 / 31023.027.0 17.916.220.7
2018-Sep-15 08:30N 42°21' W 070°16'612.3
2018-Sep-15 08:03N 42°20' W 070°08'012.5
2018-Sep-15 08:00N 42°20' W 070°08'612.0
2018-Sep-15 07:30N 42°18' W 069°60'613.4
2018-Sep-15 07:03N 42°13' W 069°56'012.5
2018-Sep-15 07:00N 42°12' W 069°56'4 8.9
2018-Sep-15 06:30N 42°08' W 069°53'510.2
2018-Sep-15 06:03N 42°04' W 069°50'0 8.2
2018-Sep-15 06:00N 42°04' W 069°50'5 9.2
2018-Sep-15 05:30N 41°60' W 069°47'510.1
2018-Sep-15 05:03N 41°56' W 069°44'010.1
2018-Sep-15 05:00N 41°55' W 069°44'510.0
2018-Sep-15 04:30N 41°51' W 069°41'4 9.9
2018-Sep-15 04:03N 41°47' W 069°38'1 9.9
2018-Sep-15 04:00N 41°46' W 069°38'510.2
2018-Sep-15 03:30N 41°42' W 069°35'510.5
2018-Sep-15 03:03N 41°38' W 069°32'110.9
2018-Sep-15 03:00N 41°37' W 069°32'510.2
2018-Sep-15 02:30N 41°33' W 069°29'613.2
2018-Sep-15 02:03N 41°27' W 069°25'113.5
2018-Sep-15 02:00N 41°27' W 069°25'713.4
2018-Sep-15 01:30N 41°21' W 069°20'613.1
2018-Sep-15 01:02N 41°15' W 069°17'012.7
2018-Sep-15 01:00N 41°15' W 069°17'712.9
2018-Sep-15 00:29N 41°09' W 069°13'612.2
2018-Sep-15 00:01N 41°04' W 069°09'011.3
2018-Sep-15 00:00N 41°04' W 069°09'711.2
2018-Sep-14 23:26N 40°58' W 069°05'411.0
2018-Sep-14 23:03N 40°54' W 069°03'111.3
2018-Sep-14 23:00N 40°54' W 069°02'611.5
2018-Sep-14 22:26N 40°48' W 068°58'2411.3
2018-Sep-14 20:19N 40°28' W 069°16'313.2
2018-Sep-14 20:03N 40°27' W 069°20'112.9
2018-Sep-14 20:00N 40°27' W 069°21'2013.0
2018-Sep-14 18:29N 40°27' W 069°47'611.2
2018-Sep-14 17:56N 40°26' W 069°55'1011.4
2018-Sep-14 17:04N 40°26' W 070°08'011.4
2018-Sep-14 17:02N 40°26' W 070°09'011.3
2018-Sep-14 17:00N 40°26' W 070°09'611.4
2018-Sep-14 16:30N 40°26' W 070°16'511.4
2018-Sep-14 16:02N 40°25' W 070°24'211.2
2018-Sep-14 15:51N 40°25' W 070°26'411.1
2018-Sep-14 15:30N 40°25' W 070°31'511.0
2018-Sep-14 15:02N 40°25' W 070°38'210.7
2018-Sep-14 14:52N 40°25' W 070°40'3311.6
2018-Sep-14 12:00N 40°24' W 071°24'9 9.1 060 / 261024.010.8 19.716.923.4
2018-Sep-14 11:00N 40°24' W 071°36'9 9.1 060 / 201024.010.8 20.117.522.8
2018-Sep-14 10:00N 40°24' W 071°48'3812.1 060 / 201023.010.8 20.017.822.4
2018-Sep-14 06:52N 40°23' W 072°38'511.4
2018-Sep-14 06:26N 40°23' W 072°44'511.3
2018-Sep-14 06:01N 40°23' W 072°51'010.8
2018-Sep-14 06:00N 40°23' W 072°51'611.2
2018-Sep-14 05:27N 40°22' W 072°59'411.1
2018-Sep-14 05:03N 40°22' W 073°05'611.2
2018-Sep-14 04:33N 40°22' W 073°12'411.2
2018-Sep-14 04:13N 40°23' W 073°17'211.0
2018-Sep-14 04:02N 40°23' W 073°19'110.9
2018-Sep-14 03:56N 40°23' W 073°21'510.7
2018-Sep-14 03:29N 40°24' W 073°27'510.6
2018-Sep-14 03:02N 40°25' W 073°33'110.5
2018-Sep-14 02:58N 40°25' W 073°34'511.1
2018-Sep-14 02:30N 40°25' W 073°41'511.3
2018-Sep-14 02:03N 40°26' W 073°48'010.0
2018-Sep-14 02:00N 40°26' W 073°48'611.9
2018-Sep-14 01:30N 40°29' W 073°55'714.8
2018-Sep-14 01:03N 40°33' W 074°02'116.1
2018-Sep-14 01:01N 40°34' W 074°02'611.9
2018-Sep-14 00:30N 40°40' W 074°03'2 3.9
2018-Sep-14 00:01N 40°41' W 074°01'0 0.0
2018-Sep-13 23:58N 40°41' W 074°01'0 0.0
2018-Sep-13 23:28N 40°41' W 074°01'0 0.0
2018-Sep-13 23:01N 40°41' W 074°01'0 0.0
2018-Sep-13 22:58N 40°41' W 074°01'0 0.0
2018-Sep-13 22:25N 40°41' W 074°01'0 0.1
2018-Sep-13 22:01N 40°41' W 074°01'0 0.2
2018-Sep-13 21:58N 40°41' W 074°01'0 0.0
2018-Sep-13 21:28N 40°41' W 074°01'0 0.0
2018-Sep-13 21:01N 40°41' W 074°01'0 0.0
2018-Sep-13 20:58N 40°41' W 074°01'0 0.0
2018-Sep-13 20:28N 40°41' W 074°01'0 0.0
2018-Sep-13 20:01N 40°41' W 074°01'0 0.0
2018-Sep-13 19:58N 40°41' W 074°01'0 0.0
2018-Sep-13 19:28N 40°41' W 074°01'0 0.1
2018-Sep-13 19:01N 40°41' W 074°01'0 0.0
2018-Sep-13 18:58N 40°41' W 074°01'0 0.0
2018-Sep-13 18:28N 40°41' W 074°01'0 0.1
2018-Sep-13 18:01N 40°41' W 074°01'0 0.0
2018-Sep-13 17:58N 40°41' W 074°01'0 0.0
2018-Sep-13 17:28N 40°41' W 074°01'0 0.0
2018-Sep-13 17:01N 40°41' W 074°01'0 0.0
2018-Sep-13 16:58N 40°41' W 074°01'0 0.0
2018-Sep-13 16:28N 40°41' W 074°01'0 0.0
2018-Sep-13 16:01N 40°41' W 074°01'0 0.0
2018-Sep-13 15:58N 40°41' W 074°01'0 0.0
2018-Sep-13 15:25N 40°41' W 074°01'0 0.1
2018-Sep-13 15:01N 40°41' W 074°01'0 0.0
2018-Sep-13 14:58N 40°41' W 074°01'0 0.0
2018-Sep-13 14:28N 40°41' W 074°01'0 0.0
2018-Sep-13 13:58N 40°41' W 074°01'0 0.0
2018-Sep-13 13:28N 40°41' W 074°01'0 0.0
2018-Sep-13 13:01N 40°41' W 074°01'0 0.0
2018-Sep-13 12:55N 40°41' W 074°01'0 0.0
2018-Sep-13 12:28N 40°41' W 074°01'0 0.0
2018-Sep-13 12:01N 40°41' W 074°01'0 0.0
2018-Sep-13 11:58N 40°41' W 074°01'0 0.0
2018-Sep-13 11:28N 40°41' W 074°01'0 0.0
2018-Sep-13 11:01N 40°41' W 074°01'0 0.0
2018-Sep-13 10:58N 40°41' W 074°01'0 0.1
2018-Sep-13 10:30N 40°41' W 074°01'1 2.4
2018-Sep-13 10:03N 40°40' W 074°02'0 4.5
2018-Sep-13 10:00N 40°40' W 074°03'4 7.5
2018-Sep-13 09:30N 40°37' W 074°03'714.4
2018-Sep-13 09:03N 40°31' W 073°59'115.5
2018-Sep-13 09:00N 40°30' W 073°58'713.9
2018-Sep-13 08:29N 40°27' W 073°49'613.0
2018-Sep-13 08:03N 40°27' W 073°42'118.9
2018-Sep-13 08:00N 40°27' W 073°41'1117.5
2018-Sep-13 07:23N 40°28' W 073°27'717.7
2018-Sep-13 07:00N 40°29' W 073°18'914.5
2018-Sep-13 06:25N 40°30' W 073°07'513.8
2018-Sep-13 06:03N 40°30' W 073°00'116.7
2018-Sep-13 05:59N 40°30' W 072°59'918.2
2018-Sep-13 05:30N 40°30' W 072°47'918.1
2018-Sep-13 05:02N 40°30' W 072°36'018.2
2018-Sep-13 05:00N 40°30' W 072°35'1117.8
2018-Sep-13 04:23N 40°31' W 072°21'717.4
2018-Sep-13 03:59N 40°31' W 072°12'918.0
2018-Sep-13 03:30N 40°31' W 071°60'  
2018-Sep-10 15:00N 45°36' W 057°36'   030 / 141031.010.8 20.9-2.319.4

Dump ship's entire track history